createdAt,value
2023-09-22T00:00:19.174Z,17.06
2023-09-22T00:00:58.161Z,17.11
2023-09-22T00:01:58.862Z,17.14
2023-09-22T00:04:40.140Z,17.15
2023-09-22T00:06:39.295Z,17.15
2023-09-22T00:08:39.048Z,17.12
2023-09-22T00:11:56.506Z,17.09
2023-09-22T00:14:26.785Z,17.08
2023-09-22T00:18:30.666Z,17.12
2023-09-22T00:22:18.651Z,17.16
2023-09-22T00:24:42.146Z,17.16
2023-09-22T00:27:21.974Z,17.19
2023-09-22T00:28:51.902Z,17.20
2023-09-22T00:30:50.523Z,17.22
2023-09-22T00:34:17.567Z,17.20
2023-09-22T00:39:37.516Z,17.24
2023-09-22T00:41:07.365Z,17.26
2023-09-22T00:44:58.110Z,17.24
2023-09-22T00:45:56.431Z,17.27
2023-09-22T00:46:56.296Z,17.29
2023-09-22T00:49:32.174Z,17.29
2023-09-22T00:55:35.342Z,17.27
2023-09-22T00:57:05.802Z,17.27
2023-09-22T00:58:35.857Z,17.27
2023-09-22T01:02:39.963Z,17.27
2023-09-22T01:09:38.809Z,17.27
2023-09-22T01:14:31.483Z,17.23
2023-09-22T01:20:04.701Z,17.24
2023-09-22T01:23:18.044Z,17.26
2023-09-22T01:26:39.434Z,17.24
2023-09-22T01:38:14.760Z,17.16
2023-09-22T01:41:03.661Z,17.14
2023-09-22T01:46:18.540Z,17.16
2023-09-22T01:48:55.747Z,17.15
2023-09-22T01:51:22.605Z,17.16
2023-09-22T01:54:14.121Z,17.14
2023-09-22T01:58:32.288Z,17.08
2023-09-22T02:00:51.364Z,17.05
2023-09-22T02:02:57.059Z,17.04
2023-09-22T02:06:03.800Z,16.99
2023-09-22T02:07:56.391Z,16.94
2023-09-22T02:11:44.712Z,16.90
2023-09-22T02:13:12.873Z,16.87
2023-09-22T02:24:26.362Z,16.84
2023-09-22T02:26:58.428Z,16.87
2023-09-22T02:29:25.952Z,16.83
2023-09-22T02:30:55.997Z,16.81
2023-09-22T02:33:31.500Z,16.76
2023-09-22T02:36:12.324Z,16.72
2023-09-22T02:37:43.409Z,16.75
2023-09-22T02:41:00.987Z,16.78
2023-09-22T02:50:18.926Z,16.79
2023-09-22T02:52:18.879Z,16.83
2023-09-22T02:55:35.044Z,16.81
2023-09-22T02:57:35.304Z,16.79
2023-09-22T03:00:12.340Z,16.60
2023-09-22T03:01:42.269Z,16.54
2023-09-22T03:04:11.347Z,16.46
2023-09-22T03:06:59.715Z,16.46
2023-09-22T03:10:00.293Z,16.33
2023-09-22T03:11:59.128Z,16.21
2023-09-22T03:15:06.757Z,16.09
2023-09-22T03:19:53.300Z,15.94
2023-09-22T03:22:22.581Z,15.94
2023-09-22T03:28:57.564Z,15.84
2023-09-22T03:31:28.431Z,15.86
2023-09-22T03:40:41.720Z,15.64
2023-09-22T03:42:10.763Z,15.61
2023-09-22T03:45:29.353Z,15.58
2023-09-22T03:47:29.145Z,15.51
2023-09-22T03:50:19.569Z,15.47
2023-09-22T03:52:55.480Z,15.40
2023-09-22T03:54:28.477Z,15.43
2023-09-22T03:58:49.438Z,15.42
2023-09-22T04:01:15.946Z,15.43
2023-09-22T04:04:17.192Z,15.37
2023-09-22T04:10:02.525Z,15.29
2023-09-22T04:13:01.673Z,15.27
2023-09-22T04:20:39.637Z,15.15
2023-09-22T04:24:09.887Z,15.11
2023-09-22T04:31:23.817Z,15.02
2023-09-22T04:35:16.820Z,15.02
2023-09-22T04:36:48.658Z,15.02
2023-09-22T04:38:48.973Z,15.06
2023-09-22T04:40:37.625Z,15.09
2023-09-22T04:43:06.900Z,15.09
2023-09-22T04:45:27.858Z,15.10
2023-09-22T04:47:27.532Z,15.10
2023-09-22T04:50:10.714Z,15.06
2023-09-22T04:52:10.572Z,15.06
2023-09-22T04:54:02.881Z,15.09
2023-09-22T04:57:35.320Z,15.11
2023-09-22T04:59:05.547Z,15.11
2023-09-22T05:09:36.037Z,15.00
2023-09-22T05:13:32.066Z,15.03
2023-09-22T05:15:01.359Z,15.03
2023-09-22T05:17:54.592Z,15.09
2023-09-22T05:18:53.169Z,15.11
2023-09-22T05:19:53.112Z,15.14
2023-09-22T05:22:20.897Z,15.14
2023-09-22T05:26:19.795Z,15.19
2023-09-22T05:27:49.152Z,15.18
2023-09-22T05:31:43.497Z,15.09
2023-09-22T05:34:10.915Z,15.10
2023-09-22T05:38:02.866Z,15.17
2023-09-22T05:39:02.531Z,15.19
2023-09-22T05:40:02.519Z,15.21
2023-09-22T05:41:02.482Z,15.24
2023-09-22T05:43:56.296Z,15.24
2023-09-22T05:45:43.627Z,15.22
2023-09-22T05:50:53.409Z,15.21
2023-09-22T05:52:23.831Z,15.25
2023-09-22T05:55:43.003Z,15.22
2023-09-22T06:01:54.300Z,15.35
2023-09-22T06:05:29.682Z,15.35
2023-09-22T06:07:00.683Z,15.40
2023-09-22T06:10:11.970Z,15.44
2023-09-22T06:12:09.126Z,15.40
2023-09-22T06:15:19.245Z,15.42
2023-09-22T06:17:21.986Z,15.37
2023-09-22T06:19:48.738Z,15.42
2023-09-22T06:21:22.995Z,15.40
2023-09-22T06:25:44.654Z,15.51
2023-09-22T06:28:05.766Z,15.43
2023-09-22T06:29:34.803Z,15.44
2023-09-22T06:32:24.879Z,15.43
2023-09-22T06:33:25.563Z,15.40
2023-09-22T06:34:25.124Z,15.42
2023-09-22T06:37:48.725Z,15.47
2023-09-22T06:43:23.664Z,15.51
2023-09-22T06:46:10.572Z,15.55
2023-09-22T06:48:43.341Z,15.58
2023-09-22T06:51:21.887Z,15.64
2023-09-22T06:52:50.766Z,15.68
2023-09-22T06:55:25.848Z,15.70
2023-09-22T06:56:53.760Z,15.75
2023-09-22T06:58:44.447Z,15.77
2023-09-22T07:00:17.525Z,15.80
2023-09-22T07:08:59.587Z,15.88
2023-09-22T07:16:37.036Z,16.12
2023-09-22T07:18:40.237Z,16.17
2023-09-22T07:21:37.058Z,16.26
2023-09-22T07:30:17.966Z,16.41
2023-09-22T07:31:48.046Z,16.42
2023-09-22T07:35:05.522Z,16.57
2023-09-22T07:36:34.728Z,16.58
2023-09-22T07:38:22.790Z,16.60
2023-09-22T07:43:50.820Z,16.68
2023-09-22T07:46:53.406Z,16.68
2023-09-22T07:57:29.065Z,16.93
2023-09-22T08:04:58.863Z,17.06
2023-09-22T08:06:48.108Z,17.12
2023-09-22T08:10:08.349Z,17.24
2023-09-22T08:12:37.216Z,17.31
2023-09-22T08:14:56.214Z,17.44
2023-09-22T08:17:23.840Z,17.42
2023-09-22T08:20:10.634Z,17.36
2023-09-22T08:22:11.559Z,17.34
2023-09-22T08:25:21.818Z,17.30
2023-09-22T08:26:52.298Z,17.30
2023-09-22T08:29:21.557Z,17.29
2023-09-22T08:31:56.813Z,17.31
2023-09-22T08:37:15.480Z,17.41
2023-09-22T08:38:54.637Z,17.39
2023-09-22T08:46:05.026Z,17.41
2023-09-22T08:48:07.131Z,17.45
2023-09-22T08:56:12.272Z,17.44
2023-09-22T08:59:11.445Z,17.56
2023-09-22T09:00:42.618Z,17.49
2023-09-22T09:02:43.496Z,17.57
2023-09-22T09:04:12.954Z,17.64
2023-09-22T09:05:44.898Z,17.70
2023-09-22T09:08:32.681Z,17.76
2023-09-22T09:13:38.116Z,17.94
2023-09-22T09:18:37.708Z,18.00
2023-09-22T09:20:09.450Z,18.11
2023-09-22T09:22:08.007Z,18.11
2023-09-22T09:26:58.404Z,18.19
2023-09-22T09:28:46.182Z,18.26
2023-09-22T09:30:15.288Z,18.33
2023-09-22T09:32:16.011Z,18.28
2023-09-22T09:33:43.223Z,18.31
2023-09-22T09:36:52.145Z,18.33
2023-09-22T09:38:22.958Z,18.37
2023-09-22T09:45:35.106Z,18.55
2023-09-22T09:47:25.749Z,18.62
2023-09-22T09:48:53.233Z,18.66
2023-09-22T09:51:15.627Z,18.73
2023-09-22T09:55:19.044Z,18.78
2023-09-22T09:56:47.814Z,18.84
2023-09-22T09:59:25.927Z,18.93
2023-09-22T10:00:56.523Z,19.02
2023-09-22T10:03:44.902Z,19.09
2023-09-22T10:08:45.382Z,19.07
2023-09-22T10:12:12.098Z,19.07
2023-09-22T10:14:00.860Z,18.98
2023-09-22T10:19:13.386Z,18.84
2023-09-22T10:21:16.096Z,18.88
2023-09-22T10:22:45.527Z,18.93
2023-09-22T10:24:59.120Z,19.02
2023-09-22T10:40:33.696Z,19.58
2023-09-22T10:43:46.803Z,19.88
2023-09-22T10:48:37.861Z,20.09
2023-09-22T10:50:07.876Z,20.04
2023-09-22T10:51:56.062Z,19.91
2023-09-22T10:54:15.325Z,20.03
2023-09-22T10:56:13.718Z,20.24
2023-09-22T10:58:13.051Z,20.52
2023-09-22T11:01:41.009Z,20.92
2023-09-22T11:04:09.714Z,21.14
2023-09-22T11:08:45.376Z,21.03
2023-09-22T11:09:45.402Z,20.99
2023-09-22T11:10:45.421Z,20.85
2023-09-22T11:12:45.383Z,20.81
2023-09-22T11:24:24.134Z,22.55
2023-09-22T11:28:27.336Z,23.06
2023-09-22T11:32:49.883Z,23.84
2023-09-22T11:34:21.200Z,24.14
2023-09-22T11:36:18.864Z,24.45
2023-09-22T11:38:18.350Z,24.51
2023-09-22T11:40:44.707Z,24.77
2023-09-22T11:43:41.683Z,24.57
2023-09-22T11:47:10.648Z,23.81
2023-09-22T11:49:10.532Z,23.54
2023-09-22T11:53:08.703Z,22.80
2023-09-22T11:54:08.705Z,22.60
2023-09-22T11:55:09.457Z,22.47
2023-09-22T11:58:08.917Z,21.95
2023-09-22T12:00:20.817Z,21.75
2023-09-22T12:03:44.880Z,21.33
2023-09-22T12:07:15.012Z,21.20
2023-09-22T12:09:46.228Z,21.11
2023-09-22T12:14:14.461Z,21.18
2023-09-22T12:15:42.529Z,21.18
2023-09-22T12:22:15.180Z,21.17
2023-09-22T12:25:15.679Z,21.12
2023-09-22T12:27:44.112Z,21.18
2023-09-22T12:30:13.845Z,21.37
2023-09-22T12:32:44.679Z,21.46
2023-09-22T12:39:22.630Z,21.18
2023-09-22T12:41:51.608Z,21.18
2023-09-22T12:44:24.119Z,21.17
2023-09-22T12:47:12.451Z,21.24
2023-09-22T12:51:04.669Z,21.80
2023-09-22T12:56:30.165Z,22.81
2023-09-22T12:59:21.440Z,22.98
2023-09-22T13:01:19.069Z,23.24
2023-09-22T13:02:48.066Z,23.48
2023-09-22T13:06:57.197Z,23.99
2023-09-22T13:08:08.313Z,24.10
2023-09-22T13:09:39.158Z,23.96
2023-09-22T13:11:08.082Z,23.69
2023-09-22T13:15:39.578Z,22.99
2023-09-22T13:19:05.395Z,22.73
2023-09-22T13:23:55.112Z,22.51
2023-09-22T13:25:16.936Z,22.51
2023-09-22T13:27:22.064Z,22.66
2023-09-22T13:28:58.565Z,22.76
2023-09-22T13:31:01.666Z,22.83
2023-09-22T13:35:22.078Z,22.84
2023-09-22T13:37:16.334Z,22.75
2023-09-22T13:40:11.548Z,22.76
2023-09-22T13:42:35.616Z,22.70
2023-09-22T13:44:36.661Z,22.53
2023-09-22T13:47:06.217Z,22.29
2023-09-22T13:48:35.370Z,22.18
2023-09-22T13:53:52.035Z,22.06
2023-09-22T13:57:52.118Z,21.95
2023-09-22T14:10:22.598Z,22.55
2023-09-22T14:11:50.968Z,22.47
2023-09-22T14:13:52.943Z,22.30
2023-09-22T14:17:03.153Z,22.17
2023-09-22T14:21:18.028Z,21.98
2023-09-22T14:22:50.681Z,21.96
2023-09-22T14:25:20.554Z,21.89
2023-09-22T14:31:36.887Z,21.91
2023-09-22T14:34:35.532Z,21.55
2023-09-22T14:37:04.343Z,21.25
2023-09-22T14:40:33.222Z,21.18
2023-09-22T14:42:31.276Z,21.18
2023-09-22T14:56:16.496Z,21.11
2023-09-22T15:05:18.143Z,21.06
2023-09-22T15:06:49.084Z,21.17
2023-09-22T15:08:18.413Z,21.21
2023-09-22T15:09:48.065Z,21.24
2023-09-22T15:11:20.333Z,21.27
2023-09-22T15:12:50.893Z,21.24
2023-09-22T15:18:44.265Z,21.17
2023-09-22T15:21:43.762Z,21.12
2023-09-22T15:24:35.578Z,21.09
2023-09-22T15:34:00.116Z,21.30
2023-09-22T15:41:00.329Z,21.12
2023-09-22T15:43:25.970Z,21.05
2023-09-22T15:47:21.282Z,20.96
2023-09-22T15:49:19.381Z,20.99
2023-09-22T15:51:51.121Z,20.95
2023-09-22T15:57:48.192Z,20.88
2023-09-22T16:00:44.806Z,20.85
2023-09-22T16:04:39.568Z,20.67
2023-09-22T16:06:08.450Z,20.63
2023-09-22T16:08:48.334Z,20.58
2023-09-22T16:11:16.749Z,20.56
2023-09-22T16:14:44.732Z,20.40
2023-09-22T16:16:14.674Z,20.40
2023-09-22T16:19:05.878Z,20.34
2023-09-22T16:23:04.519Z,20.28
2023-09-22T16:26:32.718Z,20.22
2023-09-22T16:29:59.568Z,20.10
2023-09-22T16:31:57.472Z,20.07
2023-09-22T16:33:46.838Z,20.06
2023-09-22T16:40:28.817Z,19.88
2023-09-22T16:42:26.385Z,19.88
2023-09-22T16:52:06.864Z,19.69
2023-09-22T16:53:35.904Z,19.69
2023-09-22T16:56:25.885Z,19.67
2023-09-22T16:59:25.290Z,19.59
2023-09-22T17:01:27.109Z,19.58
2023-09-22T17:03:28.627Z,19.56
2023-09-22T17:05:59.806Z,19.54
2023-09-22T17:08:01.882Z,19.52
2023-09-22T17:09:58.863Z,19.49
2023-09-22T17:11:28.764Z,19.49
2023-09-22T17:14:01.343Z,19.44
2023-09-22T17:16:57.432Z,19.34
2023-09-22T17:18:32.817Z,19.36
2023-09-22T17:21:58.079Z,19.34
2023-09-22T17:25:08.632Z,19.30
2023-09-22T17:26:38.454Z,19.29
2023-09-22T17:29:06.639Z,19.26
2023-09-22T17:30:35.517Z,19.24
2023-09-22T17:32:34.522Z,19.19
2023-09-22T17:35:08.161Z,19.18
2023-09-22T17:36:39.095Z,19.15
2023-09-22T17:39:26.975Z,19.11
2023-09-22T17:46:23.719Z,18.98
2023-09-22T17:49:50.718Z,18.84
2023-09-22T17:51:20.847Z,18.84
2023-09-22T17:53:20.994Z,18.80
2023-09-22T17:56:11.485Z,18.60
2023-09-22T17:59:08.883Z,18.45
2023-09-22T18:02:06.714Z,18.35
2023-09-22T18:03:36.673Z,18.31
2023-09-22T18:06:33.712Z,18.08
2023-09-22T18:09:05.552Z,18.04
2023-09-22T18:13:03.019Z,17.86
2023-09-22T18:15:54.194Z,17.80
2023-09-22T18:21:19.324Z,17.71
2023-09-22T18:27:56.219Z,17.54
2023-09-22T18:29:57.411Z,17.42
2023-09-22T18:33:50.403Z,17.30
2023-09-22T18:35:50.866Z,17.29
2023-09-22T18:39:19.392Z,17.26
2023-09-22T18:40:49.785Z,17.26
2023-09-22T18:43:39.923Z,17.23
2023-09-22T18:45:38.834Z,17.22
2023-09-22T18:47:18.633Z,17.23
2023-09-22T18:51:17.763Z,17.23
2023-09-22T18:52:48.230Z,17.22
2023-09-22T18:56:08.898Z,17.22
2023-09-22T18:59:25.089Z,17.22
2023-09-22T19:01:03.519Z,17.16
2023-09-22T19:03:42.518Z,17.14
2023-09-22T19:06:02.801Z,17.11
2023-09-22T19:08:48.359Z,17.08
2023-09-22T19:19:32.612Z,16.89
2023-09-22T19:27:23.514Z,16.86
2023-09-22T19:29:23.830Z,16.79
2023-09-22T19:31:48.945Z,16.75
2023-09-22T19:37:30.009Z,16.71
2023-09-22T19:42:47.609Z,16.65
2023-09-22T19:44:16.568Z,16.64
2023-09-22T19:46:21.371Z,16.64
2023-09-22T19:55:56.409Z,16.53
2023-09-22T20:03:37.213Z,16.46
2023-09-22T20:05:35.144Z,16.43
2023-09-22T20:14:20.924Z,16.38
2023-09-22T20:16:01.128Z,16.39
2023-09-22T20:18:29.664Z,16.36
2023-09-22T20:19:57.419Z,16.35
2023-09-22T20:21:29.312Z,16.32
2023-09-22T20:23:27.814Z,16.35
2023-09-22T20:28:25.743Z,16.29
2023-09-22T20:32:05.161Z,16.21
2023-09-22T20:37:34.060Z,16.16
2023-09-22T20:43:21.267Z,16.12
2023-09-22T20:45:17.415Z,16.13
2023-09-22T20:48:46.987Z,16.13
2023-09-22T20:52:27.135Z,16.16
2023-09-22T20:54:00.530Z,16.15
2023-09-22T21:03:25.965Z,16.12
2023-09-22T21:06:58.424Z,16.12
2023-09-22T21:08:59.308Z,16.15
2023-09-22T21:24:35.403Z,16.08
2023-09-22T21:28:09.008Z,16.05
2023-09-22T21:30:35.238Z,16.05
2023-09-22T21:32:28.991Z,16.02
2023-09-22T21:35:28.288Z,16.04
2023-09-22T21:39:07.542Z,16.01
2023-09-22T21:41:04.361Z,16.01
2023-09-22T21:43:11.055Z,16.02
2023-09-22T21:45:09.944Z,16.02
2023-09-22T21:50:08.705Z,16.09
2023-09-22T21:51:42.464Z,16.08
2023-09-22T21:54:23.657Z,16.10
2023-09-22T22:00:52.273Z,16.05
2023-09-22T22:06:58.752Z,16.01
2023-09-22T22:08:23.813Z,16.01
2023-09-22T22:10:30.791Z,16.00
2023-09-22T22:14:06.778Z,15.98
2023-09-22T22:20:03.808Z,15.98
2023-09-22T22:22:19.270Z,15.98
2023-09-22T22:25:49.285Z,15.94
2023-09-22T22:27:23.719Z,15.92
2023-09-22T22:32:21.105Z,15.83
2023-09-22T22:38:21.661Z,15.90
2023-09-22T22:40:31.080Z,15.82
2023-09-22T22:42:57.082Z,15.86
2023-09-22T22:47:58.544Z,15.88
2023-09-22T22:55:50.770Z,15.86
2023-09-22T22:57:23.133Z,15.83
2023-09-22T23:04:02.797Z,15.79
2023-09-22T23:06:07.976Z,15.75
2023-09-22T23:12:21.104Z,15.65
2023-09-22T23:13:46.696Z,15.62
2023-09-22T23:15:27.109Z,15.62
2023-09-22T23:20:40.889Z,15.62
2023-09-22T23:24:56.841Z,15.61
2023-09-22T23:26:34.020Z,15.62
2023-09-22T23:32:46.007Z,15.47
2023-09-22T23:38:23.667Z,15.40
2023-09-22T23:40:15.955Z,15.39
2023-09-22T23:42:12.471Z,15.39
2023-09-22T23:47:29.147Z,15.31
2023-09-22T23:49:31.879Z,15.29
2023-09-22T23:52:35.248Z,15.22
2023-09-22T23:53:56.313Z,15.15
2023-09-22T23:55:39.913Z,15.11
2023-09-22T23:58:47.217Z,15.15
